Atmospheric History
02/08/2018 19:52  to  2/9/2018 19:52
Change End Date:
To complete the export process:
1) Select all of the data below
2) Copy the data to the clipboard
3) Open a word processor such as Notepad
4) Paste the data into the word processor
5) Save the file

Date/Time (MDT), AirTemp, RH, Dewpoint ,AvgWindSpeed, GustWindSpeed, WindDirection, PrecipType, PrecipIntensity, PrecipAccumulation, PrecipRate
02/09/2018 19:50, -4, 77, -10 ,4, 6, E, None, None, ,  
02/09/2018 19:48, -4, 77, -9 ,4, 6, E, None, None, ,  
02/09/2018 19:40, -5, 76, -10 ,2, 4, E, None, None, ,  
02/09/2018 19:33, -4, 76, -9 ,3, 4, E, None, None, ,  
02/09/2018 19:29, -3, 76, -8 ,4, 4, NE, None, None, ,  
02/09/2018 19:19, -3, 76, -9 ,2, 2, E, None, None, ,  
02/09/2018 19:18, -3, 75, -9 ,2, 2, E, None, None, ,  
02/09/2018 19:09, -2, 75, -8 ,2, 4, E, None, None, ,  
02/09/2018 19:04, -2, 75, -8 ,2, 4, E, None, None, ,  
02/09/2018 18:59, -2, 75, -8 ,2, 4, E, None, None, ,  
02/09/2018 18:49, -2, 74, -8 ,2, 3, SE, None, None, ,  
02/09/2018 18:48, -2, 74, -8 ,2, 3, SE, None, None, ,  
02/09/2018 18:39, -2, 74, -8 ,2, 5, E, None, None, ,  
02/09/2018 18:33, -1, 73, -8 ,4, 5, E, None, None, ,  
02/09/2018 18:29, -1, 73, -7 ,4, 4, E, None, None, ,  
02/09/2018 18:19, -1, 72, -7 ,4, 5, E, None, None, ,  
02/09/2018 18:18, -1, 72, -7 ,4, 5, E, None, None, ,  
02/09/2018 18:09, 0, 71, -7 ,2, 4, E, None, None, ,  
02/09/2018 18:03, 0, 71, -7 ,3, 4, SE, None, None, ,  
02/09/2018 17:59, 0, 71, -7 ,3, 4, E, None, None, ,  
02/09/2018 17:49, 1, 70, -6 ,1, 4, SE, None, None, ,  
02/09/2018 17:48, 1, 70, -6 ,2, 4, SE, None, None, ,  
02/09/2018 17:39, 2, 69, -5 ,2, 3, E, None, None, ,  
02/09/2018 17:33, 2, 68, -5 ,1, 3, E, None, None, ,  
02/09/2018 17:29, 2, 68, -5 ,2, 3, E, None, None, ,  
02/09/2018 17:19, 3, 67, -5 ,2, 3, S, None, None, ,  
02/09/2018 17:18, 3, 67, -5 ,2, 3, S, None, None, ,  
02/09/2018 17:09, 4, 66, -5 ,2, 4, S, None, None, ,  
02/09/2018 17:03, 4, 65, -5 ,3, 5, S, None, None, ,  
02/09/2018 16:59, 4, 65, -5 ,3, 5, SW, None, None, ,  
02/09/2018 16:49, 4, 64, -6 ,4, 6, S, None, None, ,  
02/09/2018 16:48, 4, 64, -6 ,4, 6, S, None, None, ,  
02/09/2018 16:39, 4, 63, -5 ,4, 5, S, None, None, ,  
02/09/2018 16:33, 5, 62, -5 ,3, 4, SW, None, None, ,  
02/09/2018 16:29, 5, 62, -5 ,4, 6, SW, None, None, ,  
02/09/2018 16:19, 5, 60, -6 ,4, 4, S, None, None, ,  
02/09/2018 16:18, 5, 60, -5 ,4, 4, S, None, None, ,  
02/09/2018 16:09, 6, 58, -5 ,3, 4, S, None, None, ,  
02/09/2018 16:03, 6, 58, -5 ,3, 4, S, None, None, ,  
02/09/2018 15:59, 6, 57, -5 ,3, 4, S, None, None, ,  
02/09/2018 15:49, 7, 57, -5 ,3, 4, S, None, None, ,  
02/09/2018 15:48, 7, 57, -5 ,3, 4, S, None, None, ,  
02/09/2018 15:39, 7, 55, -6 ,3, 4, S, None, None, ,  
02/09/2018 15:33, 7, 55, -6 ,2, 3, S, None, None, ,  
02/09/2018 15:29, 7, 53, -6 ,2, 3, S, None, None, ,  
02/09/2018 15:19, 8, 50, -7 ,3, 4, S, None, None, ,  
02/09/2018 15:18, 8, 50, -7 ,3, 4, S, None, None, ,  
02/09/2018 15:09, 11, 46, -5 ,2, 4, S, None, None, ,  
02/09/2018 15:03, 12, 45, -5 ,2, 4, NW, None, None, ,  
02/09/2018 14:59, 12, 44, -5 ,2, 4, S, None, None, ,  
02/09/2018 14:48, 14, 45, -3 ,1, 3, SW, None, None, ,  
02/09/2018 14:48, 14, 45, -3 ,1, 3, N, None, None, ,  
02/09/2018 14:38, 12, 49, -3 ,1, 2, NW, None, None, ,  
02/09/2018 14:33, 10, 49, -5 ,1, 4, NW, None, None, ,  
02/09/2018 14:28, 9, 49, -6 ,1, 6, E, None, None, ,  
02/09/2018 14:18, 10, 49, -5 ,1, 4, E, None, None, ,  
02/09/2018 14:18, 10, 49, -5 ,1, 4, E, None, None, ,  
02/09/2018 14:08, 11, 49, -5 ,2, 4, NE, None, None, ,  
02/09/2018 14:03, 10, 50, -5 ,1, 4, NE, None, None, ,  
02/09/2018 13:58, 10, 50, -5 ,2, 4, NE, None, None, ,  
02/09/2018 13:48, 9, 50, -5 ,4, 6, E, None, None, ,  
02/09/2018 13:48, 9, 50, -5 ,4, 6, E, None, None, ,  
02/09/2018 13:38, 10, 49, -5 ,4, 6, SE, None, None, ,  
02/09/2018 13:33, 10, 49, -5 ,4, 6, NE, None, None, ,  
02/09/2018 13:28, 11, 49, -4 ,3, 4, N, None, None, ,  
02/09/2018 13:18, 11, 51, -4 ,3, 5, NE, None, None, ,  
02/09/2018 13:18, 11, 51, -4 ,3, 5, NE, None, None, ,  
02/09/2018 13:08, 10, 53, -4 ,2, 6, NE, None, None, ,  
02/09/2018 13:03, 9, 54, -4 ,6, 7, NE, None, None, ,  
02/09/2018 12:58, 9, 55, -4 ,5, 7, E, None, None, ,  
02/09/2018 12:48, 8, 56, -4 ,4, 6, E, None, None, ,  
02/09/2018 12:48, 8, 56, -4 ,4, 6, E, None, None, ,  
02/09/2018 12:38, 9, 55, -4 ,3, 5, E, None, None, ,  
02/09/2018 12:33, 9, 56, -3 ,4, 4, E, None, None, ,  
02/09/2018 12:28, 9, 57, -3 ,2, 4, SE, None, None, ,  
02/09/2018 12:18, 8, 57, -3 ,3, 4, E, None, None, ,  
02/09/2018 12:18, 8, 57, -3 ,3, 4, E, None, None, ,  
02/09/2018 12:08, 8, 59, -3 ,3, 6, NE, None, None, ,  
02/09/2018 12:03, 8, 60, -3 ,3, 7, E, None, None, ,  
02/09/2018 11:58, 6, 61, -4 ,4, 7, NE, None, None, ,  
02/09/2018 11:48, 7, 61, -4 ,6, 8, E, None, None, ,  
02/09/2018 11:48, 7, 61, -4 ,6, 7, E, None, None, ,  
02/09/2018 11:38, 8, 61, -3 ,2, 4, NE, Yes, , ,  
02/09/2018 11:33, 8, 62, -2 ,2, 4, NE, None, None, ,  
02/09/2018 11:28, 8, 63, -2 ,2, 4, NE, None, None, ,  
02/09/2018 11:18, 6, 65, -3 ,4, 6, NE, Yes, , ,  
02/09/2018 11:18, 6, 65, -3 ,4, 6, NE, Yes, , ,  
02/09/2018 11:08, 5, 66, -3 ,4, 6, NE, Yes, , ,  
02/09/2018 11:03, 5, 66, -4 ,4, 6, NE, None, None, ,  
02/09/2018 10:58, 5, 66, -4 ,4, 6, E, None, None, ,  
02/09/2018 10:48, 5, 67, -4 ,3, 4, N, None, None, ,  
02/09/2018 10:48, 5, 67, -3 ,3, 4, NE, None, None, ,  
02/09/2018 10:38, 5, 67, -4 ,4, 5, E, None, None, ,  
02/09/2018 10:33, 5, 67, -4 ,2, 5, E, None, None, ,  
02/09/2018 10:28, 5, 67, -4 ,3, 6, E, Yes, , ,  
02/09/2018 10:18, 4, 67, -4 ,5, 6, NE, None, None, ,  
02/09/2018 10:18, 5, 67, -4 ,6, 6, NE, None, None, ,  
02/09/2018 10:08, 5, 69, -3 ,1, 4, NE, Yes, , ,  
02/09/2018 10:03, 4, 69, -3 ,3, 4, E, Yes, , ,  
02/09/2018 09:58, 5, 71, -3 ,3, 4, E, Yes, , ,  
02/09/2018 09:48, 3, 72, -4 ,4, 7, E, None, None, ,  
02/09/2018 09:47, 3, 71, -4 ,3, 7, E, None, None, ,  
02/09/2018 09:37, 3, 72, -4 ,6, 7, E, None, None, ,  
02/09/2018 09:33, 2, 72, -4 ,6, 7, SE, None, None, ,  
02/09/2018 09:27, 4, 73, -3 ,2, 4, E, None, None, ,  
02/09/2018 09:18, 2, 75, -4 ,3, 6, E, None, None, ,  
02/09/2018 09:17, 2, 75, -4 ,3, 7, E, Yes, , ,  
02/09/2018 09:07, 1, 75, -5 ,6, 9, NE, None, None, ,  
02/09/2018 09:03, 1, 75, -5 ,7, 9, NE, None, None, ,  
02/09/2018 08:57, 1, 76, -5 ,6, 9, NE, Yes, , ,  
02/09/2018 08:48, 1, 76, -4 ,7, 9, NE, None, None, ,  
02/09/2018 08:47, 1, 76, -4 ,7, 9, NE, None, None, ,  
02/09/2018 08:37, 1, 77, -4 ,6, 7, NE, None, None, ,  
02/09/2018 08:33, 1, 78, -4 ,5, 7, E, None, None, ,  
02/09/2018 08:27, 1, 78, -4 ,6, 7, E, Yes, , ,  
02/09/2018 08:18, 1, 78, -4 ,6, 7, E, None, None, ,  
02/09/2018 08:17, 1, 78, -4 ,6, 7, E, None, None, ,  
02/09/2018 08:07, 1, 78, -4 ,2, 5, E, Yes, , ,  
02/09/2018 08:03, 1, 78, -5 ,4, 6, E, Yes, , ,  
02/09/2018 07:57, 1, 78, -5 ,4, 9, E, Yes, , ,  
02/09/2018 07:48, 0, 78, -5 ,7, 9, E, Yes, , ,  
02/09/2018 07:47, 0, 78, -5 ,7, 9, E, None, None, ,  
02/09/2018 07:37, 0, 78, -5 ,6, 7, E, Yes, , ,  
02/09/2018 07:33, 1, 79, -5 ,6, 7, NE, Yes, , ,  
02/09/2018 07:27, 1, 79, -5 ,5, 7, NE, Yes, , ,  
02/09/2018 07:18, 1, 79, -5 ,6, 9, E, Yes, , ,  
02/09/2018 07:17, 1, 79, -5 ,6, 9, E, None, None, ,  
02/09/2018 07:07, 1, 79, -4 ,5, 6, E, Yes, , ,  
02/09/2018 07:03, 1, 79, -4 ,4, 6, E, Yes, , ,  
02/09/2018 06:57, 1, 79, -4 ,4, 7, E, Yes, , ,  
02/09/2018 06:48, 1, 79, -4 ,4, 8, E, Yes, , ,  
02/09/2018 06:47, 1, 79, -4 ,4, 9, NE, Yes, , ,  
02/09/2018 06:37, 1, 79, -4 ,7, 9, E, None, None, ,  
02/09/2018 06:33, 1, 79, -4 ,8, 9, NE, None, None, ,  
02/09/2018 06:27, 1, 79, -4 ,6, 10, E, None, None, ,  
02/09/2018 06:18, 1, 79, -4 ,6, 9, E, Yes, , ,  
02/09/2018 06:17, 1, 79, -4 ,6, 11, E, Yes, , ,  
02/09/2018 06:07, 1, 79, -4 ,7, 9, E, Yes, , ,  
02/09/2018 06:03, 1, 79, -4 ,7, 9, E, None, None, ,  
02/09/2018 05:57, 1, 79, -4 ,6, 9, E, Yes, , ,  
02/09/2018 05:48, 1, 79, -4 ,7, 11, NE, Yes, , ,  
02/09/2018 05:47, 1, 79, -4 ,9, 11, NE, Yes, , ,  
02/09/2018 05:37, 1, 79, -3 ,7, 9, NE, Yes, , ,  
02/09/2018 05:33, 1, 79, -3 ,7, 9, NE, Yes, , ,  
02/09/2018 05:27, 1, 79, -4 ,7, 11, NE, Yes, , ,  
02/09/2018 05:18, 1, 79, -4 ,10, 14, E, Yes, , ,  
02/09/2018 05:17, 1, 79, -4 ,10, 14, E, Yes, , ,  
02/09/2018 05:07, 1, 79, -4 ,8, 14, E, Yes, , ,  
02/09/2018 05:03, 1, 79, -4 ,10, 14, E, Yes, , ,  
02/09/2018 04:57, 1, 79, -4 ,9, 13, E, Yes, , ,  
02/09/2018 04:48, 1, 79, -4 ,7, 12, E, Yes, , ,  
02/09/2018 04:47, 1, 78, -4 ,9, 12, E, Yes, , ,  
02/09/2018 04:37, 2, 78, -4 ,8, 12, E, Yes, , ,  
02/09/2018 04:33, 2, 78, -4 ,9, 12, NE, Yes, , ,  
02/09/2018 04:26, 2, 78, -4 ,10, 12, NE, Yes, , ,  
02/09/2018 04:18, 2, 78, -3 ,10, 13, NE, Yes, , ,  
02/09/2018 04:16, 2, 78, -3 ,10, 13, NE, Yes, , ,  
02/09/2018 04:06, 2, 78, -3 ,8, 14, E, Yes, , ,  
02/09/2018 04:03, 2, 78, -3 ,9, 14, E, None, None, ,  
02/09/2018 03:56, 2, 78, -3 ,9, 14, NE, None, None, ,  
02/09/2018 03:48, 2, 79, -3 ,11, 14, NE, None, None, ,  
02/09/2018 03:46, 2, 79, -3 ,11, 13, NE, None, None, ,  
02/09/2018 03:36, 2, 80, -3 ,9, 12, E, Yes, , ,  
02/09/2018 03:33, 2, 80, -3 ,7, 12, E, Yes, , ,  
02/09/2018 03:26, 2, 80, -3 ,10, 12, E, Yes, , ,  
02/09/2018 03:18, 2, 80, -3 ,9, 13, E, Yes, , ,  
02/09/2018 03:16, 2, 80, -3 ,10, 13, E, None, None, ,  
02/09/2018 03:06, 2, 80, -2 ,8, 11, E, Yes, , ,  
02/09/2018 03:03, 2, 80, -2 ,8, 12, E, Yes, , ,  
02/09/2018 02:56, 2, 80, -2 ,9, 14, E, None, None, ,  
02/09/2018 02:48, 2, 80, -2 ,11, 16, E, None, None, ,  
02/09/2018 02:46, 2, 80, -2 ,12, 16, E, None, None, ,  
02/09/2018 02:36, 3, 80, -2 ,9, 12, E, Yes, , ,  
02/09/2018 02:33, 3, 80, -1 ,8, 11, E, Yes, , ,  
02/09/2018 02:26, 3, 80, -1 ,6, 11, E, Yes, , ,  
02/09/2018 02:18, 3, 80, -2 ,7, 7, E, Yes, , ,  
02/09/2018 02:16, 3, 80, -2 ,6, 7, E, Yes, , ,  
02/09/2018 02:06, 3, 80, -1 ,1, 9, E, Yes, , ,  
02/09/2018 02:03, 3, 80, -2 ,7, 9, E, Yes, , ,  
02/09/2018 01:56, 3, 80, -1 ,6, 9, SE, Yes, , ,  
02/09/2018 01:48, 3, 79, -2 ,6, 7, E, Yes, , ,  
02/09/2018 01:46, 3, 79, -2 ,6, 7, E, None, None, ,  
02/09/2018 01:36, 3, 78, -2 ,7, 9, E, None, None, ,  
02/09/2018 01:33, 3, 78, -2 ,7, 9, E, Yes, , ,  
02/09/2018 01:26, 4, 78, -2 ,7, 9, E, Yes, , ,  
02/09/2018 01:18, 3, 78, -2 ,4, 9, NE, Yes, , ,  
02/09/2018 01:16, 3, 78, -2 ,6, 9, NE, Yes, , ,  
02/09/2018 01:06, 3, 78, -2 ,6, 9, E, Yes, , ,  
02/09/2018 01:03, 3, 78, -2 ,7, 9, E, None, None, ,  
02/09/2018 00:56, 3, 77, -2 ,5, 9, E, Yes, , ,  
02/09/2018 00:48, 3, 77, -2 ,7, 10, E, Yes, , ,  
02/09/2018 00:46, 3, 77, -2 ,7, 10, E, None, None, ,  
02/09/2018 00:36, 4, 76, -2 ,9, 12, E, None, None, ,  
02/09/2018 00:33, 4, 76, -2 ,7, 12, E, Yes, , ,  
02/09/2018 00:26, 4, 76, -2 ,6, 9, SE, Yes, , ,  
02/09/2018 00:18, 4, 77, -1 ,7, 9, E, None, None, ,  
02/09/2018 00:16, 4, 77, -1 ,6, 10, E, None, None, ,  
02/09/2018 00:06, 4, 77, -1 ,8, 11, E, Yes, , ,  
02/09/2018 00:03, 4, 77, -1 ,7, 11, E, None, None, ,  
02/08/2018 23:56, 4, 77, -1 ,9, 11, E, None, None, ,  
02/08/2018 23:48, 4, 77, -1 ,7, 12, E, Yes, , ,  
02/08/2018 23:46, 4, 77, -1 ,9, 12, E, None, None, ,  
02/08/2018 23:36, 4, 78, -1 ,6, 11, E, None, None, ,  
02/08/2018 23:33, 4, 78, -1 ,7, 11, E, None, None, ,  
02/08/2018 23:26, 4, 78, -1 ,9, 13, NE, None, None, ,  
02/08/2018 23:18, 5, 79, 0 ,6, 11, E, None, None, ,  
02/08/2018 23:16, 5, 79, 0 ,7, 11, NE, None, None, ,  
02/08/2018 23:06, 5, 79, 0 ,7, 12, NE, Yes, , ,  
02/08/2018 23:03, 5, 79, -1 ,6, 13, NE, Yes, , ,  
02/08/2018 22:55, 5, 79, 0 ,11, 13, E, None, None, ,  
02/08/2018 22:48, 5, 79, 0 ,9, 12, E, None, None, ,  
02/08/2018 22:45, 5, 79, 0 ,9, 13, E, None, None, ,  
02/08/2018 22:35, 5, 79, 0 ,7, 14, E, Yes, , ,  
02/08/2018 22:33, 5, 79, 0 ,8, 14, E, Yes, , ,  
02/08/2018 22:25, 5, 79, 0 ,10, 12, E, None, None, ,  
02/08/2018 22:18, 5, 79, 1 ,11, 12, E, None, None, ,  
02/08/2018 22:15, 6, 79, 1 ,7, 9, SE, None, None, ,  
02/08/2018 22:05, 6, 80, 1 ,4, 6, NE, Yes, , ,  
02/08/2018 22:03, 6, 80, 1 ,4, 6, E, Yes, , ,  
02/08/2018 21:55, 6, 80, 1 ,4, 12, E, Yes, , ,  
02/08/2018 21:48, 6, 80, 1 ,8, 14, E, Yes, , ,  
02/08/2018 21:45, 6, 80, 1 ,11, 14, E, None, None, ,  
02/08/2018 21:35, 6, 79, 1 ,7, 12, E, Yes, , ,  
02/08/2018 21:33, 6, 79, 1 ,7, 12, E, Yes, , ,  
02/08/2018 21:25, 6, 80, 1 ,9, 11, NE, Yes, , ,  
02/08/2018 21:18, 6, 80, 1 ,7, 12, NE, Yes, , ,  
02/08/2018 21:15, 6, 80, 1 ,7, 11, NE, Yes, , ,  
02/08/2018 21:05, 6, 80, 1 ,9, 11, NE, Yes, , ,  
02/08/2018 21:03, 6, 80, 1 ,9, 11, NE, Yes, , ,  
02/08/2018 20:55, 6, 81, 2 ,7, 12, NE, Yes, , ,  
02/08/2018 20:48, 6, 81, 2 ,8, 12, NE, Yes, , ,  
02/08/2018 20:45, 6, 81, 2 ,9, 12, NE, Yes, , ,  
02/08/2018 20:35, 6, 80, 2 ,11, 16, NE, Yes, , ,  
02/08/2018 20:33, 6, 80, 2 ,11, 16, NE, Yes, , ,  
02/08/2018 20:25, 6, 80, 2 ,12, 19, E, Yes, , ,  
02/08/2018 20:18, 7, 79, 2 ,8, 16, NE, Yes, , ,  
02/08/2018 20:15, 7, 79, 2 ,9, 16, E, Yes, , ,  
02/08/2018 20:05, 7, 78, 2 ,11, 14, NE, Yes, , ,  
02/08/2018 20:03, 7, 77, 2 ,12, 16, NE, Yes, , ,  
02/08/2018 19:55, 7, 78, 2 ,9, 13, NE, Yes, , ,  
Change End Date:

Copyright © 1998-2015 Vaisala, Inc.
All Rights Reserved
Send comments about the data to:
SCAN Web ® is a registered trademark of Vaisala, Inc.
SCAN Web Version 6.0